Time;durP1;ratioP1;P1;durP2;ratioP2;P2;SDS_P1;SDS_P2;PMS_P1;PMS_P2;Temp;Humidity;BMP_temperature;BMP_pressure;BME280_temperature;BME280_humidity;BME280_pressure;Samples;Min_cycle;Max_cycle;Signal;HPM_P1;HPM_P2
2023/01/26 00:01:14;;;;;;;49.30;15.20;;;0.40;99.90;;;;;;5047488;28;20413;-62
2023/01/26 00:03:40;;;;;;;45.35;14.55;;;0.30;99.90;;;;;;5048950;28;20032;-62
2023/01/26 00:06:08;;;;;;;50.50;15.30;;;0.30;99.90;;;;;;5047987;28;20470;-62
2023/01/26 00:08:42;;;;;;;48.65;15.55;;;0.30;99.90;;;;;;5049023;28;20052;-62
2023/01/26 00:11:10;;;;;;;51.60;16.52;;;0.30;99.90;;;;;;5047362;28;20033;-62
2023/01/26 00:13:36;;;;;;;55.80;16.45;;;0.30;99.90;;;;;;5049278;28;20041;-62
2023/01/26 00:16:03;;;;;;;54.20;16.27;;;0.30;99.90;;;;;;5048823;28;20032;-61
2023/01/26 00:18:29;;;;;;;53.38;16.67;;;0.30;99.90;;;;;;5049250;28;20039;-62
2023/01/26 00:20:59;;;;;;;55.55;16.67;;;0.20;99.90;;;;;;5050347;28;20033;-62
2023/01/26 00:23:27;;;;;;;53.85;16.17;;;0.10;99.90;;;;;;5048213;28;20041;-61
2023/01/26 00:25:53;;;;;;;48.00;15.18;;;0.10;99.90;;;;;;5049029;28;20033;-62
2023/01/26 00:28:18;;;;;;;55.88;15.70;;;0.10;99.90;;;;;;5046585;28;20025;-62
2023/01/26 00:30:44;;;;;;;51.65;15.73;;;0.10;99.90;;;;;;5048222;28;20098;-62
2023/01/26 00:33:10;;;;;;;52.35;16.13;;;0.10;99.90;;;;;;5047590;28;20025;-61
2023/01/26 00:35:35;;;;;;;52.45;16.80;;;0.10;99.90;;;;;;5048770;28;20037;-62
2023/01/26 00:38:01;;;;;;;50.92;16.42;;;0.00;99.90;;;;;;5037856;28;20036;-62
2023/01/26 00:40:27;;;;;;;47.95;15.85;;;-0.10;99.90;;;;;;5049717;28;20040;-62
2023/01/26 00:42:53;;;;;;;56.60;16.38;;;-0.10;99.90;;;;;;5038511;28;20608;-63
2023/01/26 00:45:20;;;;;;;62.13;17.88;;;-0.10;99.90;;;;;;5027695;28;20033;-62
2023/01/26 00:47:45;;;;;;;55.90;15.77;;;0.00;99.90;;;;;;5026955;28;20536;-62
2023/01/26 00:50:11;;;;;;;61.60;17.77;;;0.00;99.90;;;;;;5028435;28;20029;-62
2023/01/26 00:52:37;;;;;;;56.40;16.95;;;0.10;99.90;;;;;;5029134;28;20047;-61
2023/01/26 00:55:03;;;;;;;54.10;16.45;;;0.10;99.90;;;;;;5027443;28;20041;-62
2023/01/26 00:57:28;;;;;;;58.20;17.67;;;0.20;99.90;;;;;;5028543;28;20037;-62
2023/01/26 00:59:54;;;;;;;59.45;17.40;;;0.20;99.90;;;;;;5027506;28;20025;-62
2023/01/26 01:02:20;;;;;;;65.15;17.77;;;0.20;99.90;;;;;;5026661;28;20128;-62
2023/01/26 01:04:45;;;;;;;60.70;16.40;;;0.30;99.90;;;;;;5029021;28;20037;-62
2023/01/26 01:07:11;;;;;;;50.35;15.07;;;0.30;99.90;;;;;;5026617;28;20032;-62
2023/01/26 01:09:36;;;;;;;59.75;18.08;;;0.30;99.90;;;;;;5028896;28;20040;-62
2023/01/26 01:12:02;;;;;;;52.13;15.70;;;0.30;99.90;;;;;;5025136;28;20037;-62
2023/01/26 01:14:28;;;;;;;49.13;16.25;;;0.30;99.90;;;;;;5024624;28;20063;-62
2023/01/26 01:16:53;;;;;;;52.60;15.18;;;0.30;99.90;;;;;;5010129;28;20117;-62
2023/01/26 01:19:19;;;;;;;56.97;16.75;;;0.20;99.90;;;;;;5027903;28;20105;-63
2023/01/26 01:21:45;;;;;;;55.08;16.65;;;0.10;99.90;;;;;;5028117;28;20298;-63
2023/01/26 01:24:11;;;;;;;54.40;15.07;;;0.10;99.90;;;;;;5027889;28;20052;-62
2023/01/26 01:26:38;;;;;;;56.75;17.20;;;0.10;99.90;;;;;;5028140;28;20030;-62
2023/01/26 01:29:04;;;;;;;55.70;16.55;;;0.10;99.90;;;;;;5026136;28;20034;-62
2023/01/26 01:31:29;;;;;;;51.95;15.73;;;0.20;99.90;;;;;;5025957;28;20428;-61
2023/01/26 01:33:56;;;;;;;56.15;17.25;;;0.20;99.90;;;;;;5027201;28;20053;-62
2023/01/26 01:36:22;;;;;;;53.67;16.95;;;0.20;99.90;;;;;;5025867;28;20108;-61
2023/01/26 01:38:48;;;;;;;53.60;15.75;;;0.20;99.90;;;;;;5027119;28;20524;-62
2023/01/26 01:41:17;;;;;;;44.60;14.95;;;0.20;99.90;;;;;;5025678;28;20029;-62
2023/01/26 01:43:42;;;;;;;49.35;15.75;;;0.20;99.90;;;;;;5042329;28;20060;-61
2023/01/26 01:46:27;;;;;;;45.88;14.57;;;0.10;99.90;;;;;;5047459;28;20087;-61
2023/01/26 01:48:58;;;;;;;50.42;14.63;;;0.10;99.90;;;;;;5046462;28;20390;-62
2023/01/26 01:51:42;;;;;;;53.35;16.08;;;0.00;99.90;;;;;;5045637;28;20156;-61
2023/01/26 01:54:16;;;;;;;55.10;14.27;;;-0.10;99.90;;;;;;5047104;28;20041;-62
2023/01/26 01:56:46;;;;;;;49.78;14.88;;;-0.20;99.90;;;;;;5045943;28;20033;-61
2023/01/26 01:59:13;;;;;;;31.17;10.20;;;-0.30;99.90;;;;;;5046852;28;20095;-61
2023/01/26 02:01:39;;;;;;;48.55;13.73;;;-0.30;99.90;;;;;;5047004;28;20035;-60
2023/01/26 02:04:06;;;;;;;49.30;15.05;;;-0.30;99.90;;;;;;5028977;28;20043;-61
2023/01/26 02:06:41;;;;;;;58.88;15.23;;;-0.30;99.90;;;;;;5046926;28;20402;-60
2023/01/26 02:10:17;;;;;;;53.65;14.52;;;-0.30;99.90;;;;;;5047019;28;20037;-61
2023/01/26 02:11:55;;;;;;;45.28;14.07;;;-0.30;99.90;;;;;;5045549;28;20037;-61
2023/01/26 02:14:21;;;;;;;47.63;14.55;;;-0.20;99.90;;;;;;5045904;28;20474;-61
2023/01/26 02:16:47;;;;;;;49.00;14.27;;;-0.10;99.90;;;;;;5047910;28;20036;-61
2023/01/26 02:19:33;;;;;;;47.55;14.30;;;-0.20;99.90;;;;;;5045867;28;20043;-61
2023/01/26 02:22:06;;;;;;;44.63;13.32;;;-0.30;99.90;;;;;;5047561;28;20394;-62
2023/01/26 02:24:35;;;;;;;43.78;13.43;;;-0.30;99.90;;;;;;5046700;28;20051;-62
2023/01/26 02:27:01;;;;;;;48.67;14.55;;;-0.40;99.90;;;;;;5043813;28;20039;-62
2023/01/26 02:29:27;;;;;;;47.60;14.20;;;-0.40;99.90;;;;;;5046856;28;20033;-61
2023/01/26 02:31:53;;;;;;;48.30;14.35;;;-0.40;99.90;;;;;;5045705;28;20029;-61
2023/01/26 02:34:19;;;;;;;48.05;13.40;;;-0.40;99.90;;;;;;5045690;28;20049;-62
2023/01/26 02:36:55;;;;;;;46.75;13.10;;;-0.40;99.90;;;;;;5046134;28;20041;-62
2023/01/26 02:39:38;;;;;;;49.55;14.38;;;-0.50;99.90;;;;;;5046093;28;20041;-61
2023/01/26 02:44:48;;;;;;;47.65;13.60;;;-0.50;99.90;;;;;;5047105;28;20079;-62
2023/01/26 02:47:17;;;;;;;47.50;14.10;;;-0.50;99.90;;;;;;5046385;28;20061;-60
2023/01/26 02:49:51;;;;;;;48.35;13.18;;;-0.50;99.90;;;;;;5046448;28;20029;-61
2023/01/26 02:52:20;;;;;;;45.45;12.45;;;-0.50;99.90;;;;;;5045594;28;20056;-61
2023/01/26 02:57:33;;;;;;;44.13;13.23;;;-0.50;99.90;;;;;;5046566;28;20102;-62
2023/01/26 02:59:58;;;;;;;43.20;12.32;;;-0.40;99.90;;;;;;5045392;28;20033;-62
2023/01/26 03:02:24;;;;;;;49.13;12.98;;;-0.50;99.90;;;;;;5046241;28;20033;-62
2023/01/26 03:04:49;;;;;;;44.00;13.23;;;-0.50;99.90;;;;;;5046927;28;20029;-62
2023/01/26 03:07:15;;;;;;;46.40;13.48;;;-0.50;99.90;;;;;;5045411;28;20029;-62
2023/01/26 03:09:41;;;;;;;42.40;12.48;;;-0.50;99.90;;;;;;5046478;28;20021;-61
2023/01/26 03:12:07;;;;;;;39.03;12.50;;;-0.50;99.90;;;;;;5049722;28;20057;-61
2023/01/26 03:14:32;;;;;;;42.13;12.32;;;-0.50;99.90;;;;;;5047594;28;20121;-61
2023/01/26 03:16:58;;;;;;;38.53;11.55;;;-0.50;99.90;;;;;;5051266;28;20124;-61
2023/01/26 03:27:49;;;;;;;39.20;12.38;;;-0.40;99.90;;;;;;5049983;28;20532;-61
2023/01/26 03:30:17;;;;;;;36.97;12.43;;;-0.40;99.90;;;;;;5045758;28;20052;-61
2023/01/26 03:32:43;;;;;;;41.17;13.02;;;-0.40;99.90;;;;;;5050704;28;20508;-62
2023/01/26 03:35:13;;;;;;;44.22;12.52;;;-0.50;99.90;;;;;;5049342;28;20064;-61
2023/01/26 03:37:42;;;;;;;;;;;-0.50;99.90;;;;;;5050610;28;20461;-61
2023/01/26 03:56:33;;;;;;;44.13;13.10;;;-0.50;99.90;;;;;;5050011;28;20048;-62
2023/01/26 03:59:08;;;;;;;41.15;12.18;;;-0.50;99.90;;;;;;5048161;28;20032;-62
2023/01/26 04:09:59;;;;;;;45.92;13.57;;;-0.50;99.90;;;;;;5048696;28;20511;-62
2023/01/26 04:12:24;;;;;;;42.25;12.88;;;-0.50;99.90;;;;;;5048370;28;20025;-62
2023/01/26 04:23:03;;;;;;;47.33;13.63;;;-0.50;99.90;;;;;;5048978;28;20036;-61
2023/01/26 04:25:29;;;;;;;45.78;14.93;;;-0.50;99.90;;;;;;5047177;28;20028;-60
2023/01/26 04:27:54;;;;;;;46.80;13.30;;;-0.50;99.90;;;;;;5046182;28;20036;-62
2023/01/26 04:30:20;;;;;;;43.38;13.50;;;-0.50;99.90;;;;;;5044974;28;20033;-62
2023/01/26 04:32:46;;;;;;;44.85;13.98;;;-0.60;99.90;;;;;;5012496;28;20125;-61
2023/01/26 04:35:12;;;;;;;45.88;12.93;;;-0.60;99.90;;;;;;5047312;28;20075;-61
2023/01/26 04:37:38;;;;;;;49.08;13.73;;;-0.60;99.90;;;;;;5050091;28;20025;-62
2023/01/26 04:40:06;;;;;;;42.22;12.90;;;-0.60;99.90;;;;;;5047876;28;20428;-62
2023/01/26 04:42:32;;;;;;;50.50;12.90;;;-0.70;99.90;;;;;;5056321;28;20057;-62
2023/01/26 04:44:58;;;;;;;48.13;13.32;;;-0.70;99.90;;;;;;5033081;28;20045;-62
2023/01/26 04:47:23;;;;;;;46.78;12.68;;;-0.70;99.90;;;;;;5047064;28;20086;-60
2023/01/26 04:49:49;;;;;;;41.80;12.13;;;-0.60;99.90;;;;;;5049049;28;20052;-62
2023/01/26 04:52:15;;;;;;;40.05;11.40;;;-0.50;99.90;;;;;;5047472;28;20099;-60
2023/01/26 04:54:40;;;;;;;37.05;11.25;;;-0.50;99.90;;;;;;5048031;28;20400;-61
2023/01/26 04:57:07;;;;;;;37.70;11.68;;;-0.40;99.90;;;;;;5046845;28;20413;-62
2023/01/26 04:59:33;;;;;;;39.88;11.80;;;-0.50;99.90;;;;;;5027415;28;20251;-61
2023/01/26 05:01:59;;;;;;;37.40;12.13;;;-0.50;99.90;;;;;;5033640;28;20060;-62
2023/01/26 05:04:25;;;;;;;43.33;11.68;;;-0.50;99.90;;;;;;5035733;28;20033;-62
2023/01/26 05:06:51;;;;;;;36.25;12.25;;;-0.40;99.90;;;;;;5035749;28;20029;-62
2023/01/26 05:09:16;;;;;;;39.47;12.85;;;-0.50;99.90;;;;;;5028793;28;20026;-62
2023/01/26 05:11:42;;;;;;;39.13;11.68;;;-0.50;99.90;;;;;;5045271;28;20116;-62
2023/01/26 05:14:07;;;;;;;41.78;11.38;;;-0.50;99.90;;;;;;5047639;28;20041;-62
2023/01/26 05:16:33;;;;;;;47.03;13.05;;;-0.50;99.90;;;;;;5046971;28;20033;-62
2023/01/26 05:18:59;;;;;;;46.85;12.48;;;-0.50;99.90;;;;;;5048573;28;20096;-61
2023/01/26 05:21:26;;;;;;;37.95;11.55;;;-0.50;99.90;;;;;;5046898;28;20456;-61
2023/01/26 05:23:52;;;;;;;39.72;11.63;;;-0.50;99.90;;;;;;5048293;28;20025;-62
2023/01/26 05:26:17;;;;;;;36.45;11.48;;;-0.50;99.90;;;;;;5045780;28;20063;-62
2023/01/26 05:28:43;;;;;;;32.15;10.27;;;-0.50;99.90;;;;;;5038145;28;20080;-62
2023/01/26 05:31:09;;;;;;;30.23;10.48;;;-0.50;99.90;;;;;;5046171;28;20032;-62
2023/01/26 05:33:34;;;;;;;32.22;10.38;;;-0.50;99.90;;;;;;5042982;28;20039;-61
2023/01/26 05:36:04;;;;;;;32.60;10.07;;;-0.50;99.90;;;;;;5047133;28;20043;-61
2023/01/26 05:38:30;;;;;;;32.45;11.45;;;-0.40;99.90;;;;;;5048018;28;20101;-62
2023/01/26 05:40:56;;;;;;;38.38;10.35;;;-0.40;99.90;;;;;;5046135;28;20159;-64
2023/01/26 05:43:21;;;;;;;37.20;11.32;;;-0.40;99.90;;;;;;5032243;28;20052;-63
2023/01/26 05:45:47;;;;;;;40.70;11.00;;;-0.50;99.90;;;;;;5015391;28;20032;-63
2023/01/26 05:48:12;;;;;;;37.65;11.30;;;-0.50;99.90;;;;;;5047696;28;20033;-63
2023/01/26 05:50:38;;;;;;;34.28;10.98;;;-0.50;99.90;;;;;;5030056;28;21265;-64
2023/01/26 05:53:05;;;;;;;36.38;10.85;;;-0.50;99.90;;;;;;5048645;28;20545;-63
2023/01/26 05:55:30;;;;;;;32.95;9.77;;;-0.50;99.90;;;;;;5045822;28;20711;-63
2023/01/26 05:57:56;;;;;;;36.85;10.73;;;-0.40;99.90;;;;;;5038035;28;20040;-62
2023/01/26 06:00:22;;;;;;;32.90;11.15;;;-0.50;99.90;;;;;;5044007;28;20021;-65
2023/01/26 06:02:48;;;;;;;35.33;11.00;;;-0.40;99.90;;;;;;5030427;28;20359;-63
2023/01/26 06:05:14;;;;;;;37.90;10.82;;;-0.30;99.90;;;;;;5045045;28;20158;-63
2023/01/26 06:07:39;;;;;;;37.55;11.55;;;-0.30;99.90;;;;;;5045505;28;20033;-63
2023/01/26 06:10:05;;;;;;;35.28;10.93;;;-0.30;99.90;;;;;;5047379;28;20747;-63
2023/01/26 06:12:37;;;;;;;33.55;10.63;;;-0.30;99.90;;;;;;5047228;28;20029;-63
2023/01/26 06:15:04;;;;;;;31.20;10.55;;;-0.30;99.90;;;;;;5044034;28;20452;-64
2023/01/26 06:17:30;;;;;;;28.70;9.23;;;-0.30;99.90;;;;;;5045737;28;20040;-63
2023/01/26 06:19:56;;;;;;;36.13;10.15;;;-0.30;99.90;;;;;;5044585;28;20048;-63
2023/01/26 06:22:22;;;;;;;31.48;9.25;;;-0.40;99.90;;;;;;5046662;28;20021;-62
2023/01/26 06:24:47;;;;;;;31.95;10.70;;;-0.40;99.90;;;;;;5047069;28;20037;-61
2023/01/26 06:27:16;;;;;;;33.45;9.68;;;-0.40;99.90;;;;;;5044000;28;20044;-62
2023/01/26 06:29:43;;;;;;;29.77;9.27;;;-0.40;99.90;;;;;;5034862;28;20025;-63
2023/01/26 06:32:10;;;;;;;31.80;10.02;;;-0.40;99.90;;;;;;5048017;28;20036;-64
2023/01/26 06:34:36;;;;;;;31.10;8.63;;;-0.40;99.90;;;;;;5026094;28;20429;-64
2023/01/26 06:37:01;;;;;;;30.90;9.40;;;-0.40;99.90;;;;;;5046190;28;20028;-64
2023/01/26 06:39:27;;;;;;;31.08;9.20;;;-0.40;99.90;;;;;;5046066;28;20693;-63
2023/01/26 06:41:52;;;;;;;32.83;9.50;;;-0.40;99.90;;;;;;5045879;28;20100;-63
2023/01/26 06:44:18;;;;;;;29.40;9.45;;;-0.40;99.90;;;;;;5045159;28;20082;-65
2023/01/26 06:46:44;;;;;;;30.70;9.60;;;-0.30;99.90;;;;;;5043958;28;20680;-62
2023/01/26 06:49:09;;;;;;;32.10;10.02;;;-0.30;99.90;;;;;;5040857;28;20067;-63
2023/01/26 06:51:44;;;;;;;31.67;9.77;;;-0.30;99.90;;;;;;5051067;28;20090;-63
2023/01/26 06:54:11;;;;;;;28.33;9.07;;;-0.20;99.90;;;;;;5051207;28;20437;-63
2023/01/26 06:56:37;;;;;;;29.20;9.13;;;-0.20;99.90;;;;;;5050938;28;20025;-62
2023/01/26 06:59:04;;;;;;;29.30;9.23;;;-0.30;99.90;;;;;;5046069;28;20121;-63
2023/01/26 07:01:35;;;;;;;27.60;9.07;;;-0.30;99.90;;;;;;5046720;28;20397;-63
2023/01/26 07:04:01;;;;;;;29.33;8.90;;;-0.20;99.90;;;;;;5046905;28;20041;-64
2023/01/26 07:06:26;;;;;;;29.50;9.35;;;-0.20;99.90;;;;;;5050826;28;20017;-63
2023/01/26 07:08:52;;;;;;;31.52;10.00;;;-0.20;99.90;;;;;;5031896;28;20079;-62
2023/01/26 07:11:19;;;;;;;28.48;9.20;;;-0.10;99.90;;;;;;5048395;28;20021;-63
2023/01/26 07:13:45;;;;;;;26.77;9.57;;;-0.10;99.90;;;;;;5046899;28;20037;-61
2023/01/26 07:16:13;;;;;;;27.42;9.23;;;-0.10;99.90;;;;;;5050293;28;20025;-61
2023/01/26 07:18:42;;;;;;;30.42;8.93;;;-0.20;99.90;;;;;;5048512;28;20055;-62
2023/01/26 07:21:17;;;;;;;29.88;10.48;;;-0.20;99.90;;;;;;5046265;28;20112;-63
2023/01/26 07:23:42;;;;;;;27.42;9.07;;;-0.10;99.90;;;;;;5048621;28;20865;-63
2023/01/26 07:26:08;;;;;;;29.95;9.00;;;-0.10;99.90;;;;;;5047187;28;20029;-63
2023/01/26 07:28:34;;;;;;;32.88;10.10;;;-0.10;99.90;;;;;;5043030;28;20041;-63
2023/01/26 07:31:01;;;;;;;29.27;9.90;;;-0.10;99.90;;;;;;5037902;28;20072;-62
2023/01/26 07:33:31;;;;;;;28.17;9.82;;;0.00;99.90;;;;;;5050162;28;20382;-63
2023/01/26 07:35:56;;;;;;;28.23;9.38;;;0.00;99.90;;;;;;5014826;28;20030;-63
2023/01/26 07:38:23;;;;;;;30.65;8.90;;;0.00;99.90;;;;;;5038299;28;20086;-63
2023/01/26 07:40:50;;;;;;;26.17;9.13;;;-0.10;99.90;;;;;;5031260;28;20071;-63
2023/01/26 07:43:16;;;;;;;28.67;8.80;;;-0.10;99.90;;;;;;5050463;28;20064;-63
2023/01/26 07:45:51;;;;;;;25.27;8.80;;;-0.20;99.90;;;;;;5048771;28;20021;-63
2023/01/26 07:48:19;;;;;;;29.90;9.02;;;-0.30;99.90;;;;;;5049237;28;20127;-64
2023/01/26 07:50:46;;;;;;;30.55;9.10;;;-0.20;99.90;;;;;;5047541;28;20090;-63
2023/01/26 07:53:14;;;;;;;27.20;8.55;;;-0.20;99.90;;;;;;5050066;28;20116;-62
2023/01/26 07:55:42;;;;;;;26.23;8.52;;;-0.20;99.90;;;;;;5048020;28;20056;-63
2023/01/26 07:58:08;;;;;;;27.45;8.35;;;-0.20;99.90;;;;;;5049002;28;20032;-63
2023/01/26 08:00:34;;;;;;;26.33;8.20;;;-0.20;99.90;;;;;;5043426;28;20393;-63
2023/01/26 08:03:00;;;;;;;21.02;7.13;;;-0.20;99.90;;;;;;5047479;28;20037;-63
2023/01/26 08:05:25;;;;;;;27.70;8.68;;;-0.10;99.90;;;;;;5046146;28;20040;-64
2023/01/26 08:07:51;;;;;;;25.13;8.23;;;0.00;99.90;;;;;;5049867;28;20061;-63
2023/01/26 08:10:17;;;;;;;25.45;8.82;;;0.10;99.90;;;;;;5050599;28;20139;-62
2023/01/26 08:12:42;;;;;;;29.38;8.50;;;0.10;99.90;;;;;;5046023;28;20690;-62
2023/01/26 08:15:09;;;;;;;39.15;14.63;;;0.10;99.90;;;;;;5041786;28;20094;-63
2023/01/26 08:17:35;;;;;;;30.95;10.88;;;0.10;99.90;;;;;;5044520;28;20053;-63
2023/01/26 08:20:01;;;;;;;50.33;15.50;;;0.10;99.90;;;;;;5048742;28;20075;-63
2023/01/26 08:22:26;;;;;;;55.08;15.95;;;0.10;99.90;;;;;;5049557;28;20025;-63
2023/01/26 08:24:52;;;;;;;34.45;10.20;;;0.20;99.90;;;;;;5049216;28;20057;-63
2023/01/26 08:27:18;;;;;;;26.23;8.13;;;0.20;99.90;;;;;;5045670;28;20028;-63
2023/01/26 08:29:43;;;;;;;25.15;8.35;;;0.20;99.90;;;;;;5042049;28;20028;-62
2023/01/26 08:32:09;;;;;;;27.63;8.70;;;0.10;99.90;;;;;;5047294;28;20029;-65
2023/01/26 08:34:35;;;;;;;25.55;7.85;;;0.10;99.90;;;;;;5046428;28;20033;-64
2023/01/26 08:37:01;;;;;;;29.42;8.75;;;0.00;99.90;;;;;;5047686;28;20056;-65
2023/01/26 08:39:27;;;;;;;23.65;7.50;;;0.00;99.90;;;;;;5045590;28;20029;-62
2023/01/26 08:41:53;;;;;;;23.23;8.07;;;0.00;99.90;;;;;;5049640;28;20481;-62
2023/01/26 08:44:18;;;;;;;24.88;8.25;;;-0.10;99.90;;;;;;5046131;28;20745;-63
2023/01/26 08:46:44;;;;;;;29.05;9.55;;;0.00;99.90;;;;;;5045619;28;20332;-63
2023/01/26 08:49:10;;;;;;;24.92;8.40;;;0.00;99.90;;;;;;5049930;28;20127;-63
2023/01/26 08:51:36;;;;;;;16.98;6.70;;;0.10;99.90;;;;;;5049244;28;20454;-63
2023/01/26 08:54:06;;;;;;;21.38;7.20;;;0.00;99.90;;;;;;5048574;28;20040;-64
2023/01/26 08:56:32;;;;;;;19.10;7.07;;;-0.10;99.90;;;;;;5049167;28;20044;-63
2023/01/26 08:58:58;;;;;;;19.00;7.15;;;-0.10;99.90;;;;;;5049932;28;20029;-63
2023/01/26 09:01:24;;;;;;;21.50;7.65;;;-0.10;99.90;;;;;;5042675;28;20048;-63
2023/01/26 09:03:51;;;;;;;20.30;7.07;;;-0.10;99.90;;;;;;5048157;28;20037;-63
2023/01/26 09:06:17;;;;;;;13.18;5.03;;;-0.10;99.90;;;;;;5040526;28;20029;-63
2023/01/26 09:08:43;;;;;;;9.40;4.15;;;-0.10;99.90;;;;;;5047246;28;20431;-62
2023/01/26 09:11:09;;;;;;;10.40;4.03;;;-0.10;99.90;;;;;;5046683;28;20768;-63
2023/01/26 09:13:36;;;;;;;9.52;3.78;;;-0.10;99.90;;;;;;5046900;28;20060;-63
2023/01/26 09:16:14;;;;;;;11.00;3.85;;;-0.10;99.90;;;;;;5045169;28;20043;-64
2023/01/26 09:18:40;;;;;;;9.30;3.55;;;-0.10;99.90;;;;;;5048787;28;20474;-64
2023/01/26 09:21:07;;;;;;;10.10;4.18;;;-0.10;99.90;;;;;;5049328;28;20151;-62
2023/01/26 09:23:34;;;;;;;11.18;3.90;;;-0.10;99.90;;;;;;5048552;28;20025;-63
2023/01/26 09:26:01;;;;;;;8.75;3.60;;;-0.10;99.90;;;;;;5045746;28;20474;-63
2023/01/26 09:28:33;;;;;;;11.68;3.20;;;0.00;99.90;;;;;;5058867;28;20408;-63
2023/01/26 09:31:07;;;;;;;9.43;3.60;;;0.00;99.90;;;;;;5059376;28;20032;-63
2023/01/26 09:33:33;;;;;;;9.90;3.83;;;0.00;99.90;;;;;;5064971;28;20090;-63
2023/01/26 09:36:07;;;;;;;12.25;4.40;;;0.00;99.90;;;;;;5063861;28;20037;-63
2023/01/26 09:38:33;;;;;;;9.98;4.07;;;0.10;99.90;;;;;;5064097;28;20024;-62
2023/01/26 09:41:28;;;;;;;15.10;4.88;;;0.10;99.90;;;;;;5063949;28;20044;-63
2023/01/26 09:44:02;;;;;;;11.65;4.15;;;0.20;99.90;;;;;;5065345;28;20038;-63
2023/01/26 09:46:28;;;;;;;10.57;3.80;;;0.20;99.90;;;;;;5062933;28;20389;-63
2023/01/26 09:48:53;;;;;;;9.80;3.78;;;0.10;99.90;;;;;;5064045;28;20029;-63
2023/01/26 09:51:27;;;;;;;11.98;4.13;;;0.10;99.90;;;;;;5065343;28;20036;-63
2023/01/26 09:53:58;;;;;;;10.18;4.13;;;0.00;99.90;;;;;;5062675;28;20029;-62
2023/01/26 09:56:29;;;;;;;10.57;4.03;;;0.10;99.90;;;;;;5064858;28;20408;-63
2023/01/26 09:59:03;;;;;;;13.10;4.88;;;0.10;99.90;;;;;;5061871;28;20470;-63
2023/01/26 10:01:44;;;;;;;25.00;9.05;;;0.10;99.90;;;;;;5047135;28;20120;-63
2023/01/26 10:04:13;;;;;;;;;;;0.20;99.90;;;;;;5045876;28;20029;-63
2023/01/26 10:06:40;;;;;;;27.15;9.80;;;0.30;99.90;;;;;;5060207;28;20436;-63
2023/01/26 10:09:17;;;;;;;21.77;8.65;;;0.40;99.90;;;;;;5062645;28;20072;-63
2023/01/26 10:11:47;;;;;;;18.60;7.25;;;0.50;99.90;;;;;;5064102;28;20381;-64
2023/01/26 10:14:37;;;;;;;16.52;6.00;;;0.50;99.90;;;;;;5065004;28;20043;-63
2023/01/26 10:17:06;;;;;;;18.33;6.53;;;0.50;99.90;;;;;;5064179;28;20033;-62
2023/01/26 10:19:55;;;;;;;21.27;6.78;;;0.50;99.90;;;;;;5062989;28;20086;-64
2023/01/26 10:22:39;;;;;;;16.33;5.65;;;0.60;99.90;;;;;;5045076;28;20425;-63
2023/01/26 10:25:14;;;;;;;12.80;4.78;;;0.60;99.90;;;;;;5057459;28;20392;-63
2023/01/26 10:27:40;;;;;;;13.35;5.03;;;0.70;99.90;;;;;;5062208;28;20057;-63
2023/01/26 10:30:12;;;;;;;14.88;5.22;;;0.60;99.90;;;;;;5063937;28;20032;-63
2023/01/26 10:32:40;;;;;;;13.73;5.30;;;0.70;99.90;;;;;;5063672;28;20032;-63
2023/01/26 10:35:32;;;;;;;13.27;5.38;;;0.60;99.90;;;;;;5064283;28;20060;-63
2023/01/26 10:37:58;;;;;;;16.73;5.40;;;0.70;99.90;;;;;;5061895;28;20523;-63
2023/01/26 10:40:24;;;;;;;12.98;5.03;;;0.70;99.90;;;;;;5035004;28;20060;-63
2023/01/26 10:42:58;;;;;;;26.65;11.52;;;0.70;99.90;;;;;;5047063;28;20846;-63
2023/01/26 10:45:32;;;;;;;16.73;7.05;;;0.60;99.90;;;;;;5036521;28;20028;-63
2023/01/26 10:48:25;;;;;;;15.55;6.00;;;0.60;99.90;;;;;;5049862;28;20115;-63
2023/01/26 10:50:52;;;;;;;25.92;8.55;;;0.60;99.90;;;;;;5048400;28;20037;-63
2023/01/26 10:53:28;;;;;;;36.38;13.25;;;0.60;99.90;;;;;;5051230;28;20028;-63
2023/01/26 10:56:10;;;;;;;24.48;7.60;;;0.60;99.90;;;;;;5050337;28;20036;-63
2023/01/26 10:58:56;;;;;;;20.17;6.63;;;0.70;99.90;;;;;;5046478;28;20064;-63
2023/01/26 11:01:26;;;;;;;17.17;6.88;;;0.70;99.90;;;;;;5037529;28;20116;-62
2023/01/26 11:04:10;;;;;;;24.30;8.75;;;0.70;99.90;;;;;;5041787;28;20025;-62
2023/01/26 11:06:36;;;;;;;31.38;9.40;;;0.80;99.90;;;;;;5046841;28;20044;-63
2023/01/26 11:09:27;;;;;;;21.50;7.80;;;0.70;99.90;;;;;;5050334;28;20102;-62
2023/01/26 11:12:01;;;;;;;23.17;8.10;;;0.70;99.90;;;;;;5040284;28;20044;-63
2023/01/26 11:14:28;;;;;;;21.38;7.20;;;0.70;99.90;;;;;;5049944;28;20043;-63
2023/01/26 11:17:04;;;;;;;20.67;7.32;;;0.70;99.90;;;;;;5045845;28;20036;-63
2023/01/26 11:19:56;;;;;;;19.98;7.20;;;0.70;99.90;;;;;;5050559;28;20684;-63
2023/01/26 11:22:54;;;;;;;22.63;8.07;;;0.70;99.90;;;;;;5050286;28;20394;-63
2023/01/26 11:25:24;;;;;;;20.35;7.07;;;0.80;99.90;;;;;;5041198;28;20036;-63
2023/01/26 11:28:10;;;;;;;;;;;0.70;99.90;;;;;;5044976;28;20076;-62
2023/01/26 11:30:47;;;;;;;19.98;6.35;;;0.70;99.90;;;;;;5045342;28;19985;-62
2023/01/26 11:33:27;;;;;;;18.73;6.90;;;0.80;99.90;;;;;;5052041;28;20029;-64
2023/01/26 11:36:04;;;;;;;18.65;6.80;;;0.70;99.90;;;;;;5048995;28;20959;-64
2023/01/26 11:38:48;;;;;;;21.17;7.40;;;0.70;99.90;;;;;;5052172;28;20032;-64
2023/01/26 11:41:17;;;;;;;23.52;7.40;;;0.70;99.90;;;;;;5047715;28;20037;-64
2023/01/26 11:44:05;;;;;;;20.40;7.32;;;0.70;99.90;;;;;;5048882;28;20029;-63
2023/01/26 11:47:05;;;;;;;21.88;7.88;;;0.70;99.90;;;;;;5038612;28;20041;-65
2023/01/26 11:49:44;;;;;;;23.27;7.35;;;0.60;99.90;;;;;;5045554;28;20545;-64
2023/01/26 11:52:39;;;;;;;22.55;7.30;;;0.60;99.90;;;;;;5040313;28;20083;-63
2023/01/26 11:55:24;;;;;;;22.38;7.45;;;0.60;99.90;;;;;;5030179;28;20091;-64
2023/01/26 11:58:21;;;;;;;18.10;6.63;;;0.50;99.90;;;;;;5027645;28;20033;-64
2023/01/26 12:00:55;;;;;;;22.05;8.27;;;0.50;99.90;;;;;;5042514;28;20104;-64
2023/01/26 12:03:33;;;;;;;26.40;9.00;;;0.40;99.90;;;;;;5036982;28;20108;-63
2023/01/26 12:06:12;;;;;;;28.73;11.23;;;0.40;99.90;;;;;;5048574;28;20087;-63
2023/01/26 12:08:43;;;;;;;30.10;11.40;;;0.40;99.90;;;;;;5043282;28;20025;-63
2023/01/26 12:11:29;;;;;;;23.27;7.90;;;0.30;99.90;;;;;;5029717;28;20475;-64
2023/01/26 12:13:57;;;;;;;21.55;7.50;;;0.30;99.90;;;;;;5028558;28;20025;-64
2023/01/26 12:16:32;;;;;;;20.42;7.18;;;0.30;99.90;;;;;;5049033;28;20041;-63
2023/01/26 12:19:27;;;;;;;21.23;7.50;;;0.40;99.90;;;;;;5046360;28;20682;-64
2023/01/26 12:21:56;;;;;;;19.65;6.93;;;0.50;99.90;;;;;;5045934;28;20029;-63
2023/01/26 12:24:36;;;;;;;20.00;6.72;;;0.50;99.90;;;;;;5049043;28;20033;-64
2023/01/26 12:27:05;;;;;;;27.30;8.27;;;0.60;99.90;;;;;;5046178;28;20650;-64
2023/01/26 12:29:53;;;;;;;26.23;7.72;;;0.50;99.90;;;;;;5046842;28;20040;-64
2023/01/26 12:32:21;;;;;;;27.00;9.02;;;0.40;99.90;;;;;;5048510;28;20029;-64
2023/01/26 12:34:47;;;;;;;38.17;11.00;;;0.40;99.90;;;;;;5045756;28;20029;-63
2023/01/26 12:37:36;;;;;;;24.63;7.75;;;0.30;99.90;;;;;;5044783;28;20047;-63
2023/01/26 12:40:24;;;;;;;37.38;11.13;;;0.20;99.90;;;;;;5032997;28;20026;-64
2023/01/26 12:43:08;;;;;;;29.52;8.32;;;0.30;99.90;;;;;;5044912;28;20037;-64
2023/01/26 12:45:40;;;;;;;35.03;13.02;;;0.30;99.90;;;;;;5048499;28;20033;-64
2023/01/26 12:48:17;;;;;;;36.65;12.95;;;0.30;99.90;;;;;;5048362;28;20070;-65
2023/01/26 12:50:50;;;;;;;21.08;7.00;;;0.40;99.90;;;;;;5046967;28;20032;-63
2023/01/26 12:53:22;;;;;;;29.02;9.77;;;0.40;99.90;;;;;;5048863;28;20037;-64
2023/01/26 12:55:53;;;;;;;20.67;7.28;;;0.50;99.90;;;;;;5046546;28;20033;-63
2023/01/26 12:58:25;;;;;;;20.30;7.38;;;0.40;99.90;;;;;;5046973;28;20043;-64
2023/01/26 13:01:12;;;;;;;22.02;8.00;;;0.50;99.90;;;;;;5047150;28;20032;-64
2023/01/26 13:03:44;;;;;;;29.45;10.52;;;0.50;99.90;;;;;;5048459;28;20548;-63
2023/01/26 13:06:13;;;;;;;21.65;7.93;;;0.50;99.90;;;;;;5041621;28;20052;-64
2023/01/26 13:09:00;;;;;;;18.42;6.60;;;0.40;99.90;;;;;;5041824;28;20052;-64
2023/01/26 13:11:44;;;;;;;19.88;6.93;;;0.40;99.90;;;;;;5040982;28;20040;-63
2023/01/26 13:14:31;;;;;;;16.85;6.03;;;0.40;99.90;;;;;;5048427;28;20469;-64
2023/01/26 13:17:26;;;;;;;19.30;6.13;;;0.50;99.90;;;;;;5046064;28;20033;-64
2023/01/26 13:19:58;;;;;;;22.33;6.35;;;0.50;99.90;;;;;;5046228;28;20048;-64
2023/01/26 13:22:24;;;;;;;16.75;6.07;;;0.50;99.90;;;;;;5048505;28;20037;-64
2023/01/26 13:24:55;;;;;;;16.73;6.82;;;0.40;99.90;;;;;;5045761;28;20041;-64
2023/01/26 13:27:33;;;;;;;20.10;6.93;;;0.40;99.90;;;;;;5041882;28;20056;-62
2023/01/26 13:29:59;;;;;;;20.80;7.85;;;0.50;99.90;;;;;;5045753;28;20029;-63
2023/01/26 13:32:25;;;;;;;22.13;7.28;;;0.50;99.90;;;;;;5048700;28;20408;-64
2023/01/26 13:34:58;;;;;;;19.10;6.78;;;0.50;99.90;;;;;;5040380;28;20123;-64
2023/01/26 13:37:45;;;;;;;21.25;7.10;;;0.50;99.90;;;;;;5039965;28;20041;-64
2023/01/26 13:40:29;;;;;;;19.42;7.10;;;0.50;99.90;;;;;;5045344;28;20029;-64